Time;durP1;ratioP1;P1;durP2;ratioP2;P2;SDS_P1;SDS_P2;PMS_P1;PMS_P2;Temp;Humidity;BMP_temperature;BMP_pressure;BME280_temperature;BME280_humidity;BME280_pressure;Samples;Min_cycle;Max_cycle;Signal;HPM_P1;HPM_P2
2022/12/16 00:01:35;;;;;;;;;;;;;;;1.00;100.00;101059.00;5026269;28;19928;-73
2022/12/16 00:04:00;;;;;;;;;;;;;;;0.99;100.00;101062.47;5027184;28;19952;-73
2022/12/16 00:06:28;;;;;;;;;;;;;;;0.97;100.00;101062.44;5027706;28;19924;-73
2022/12/16 00:08:53;;;;;;;;;;;;;;;0.97;100.00;101066.75;5028378;28;19924;-73
2022/12/16 00:11:19;;;;;;;;;;;;;;;0.97;100.00;101064.19;5027980;28;19921;-73
2022/12/16 00:13:44;;;;;;;;;;;;;;;0.96;100.00;101063.28;5026393;28;19924;-73
2022/12/16 00:16:10;;;;;;;;;;;;;;;0.94;100.00;101065.88;5024631;28;19916;-73
2022/12/16 00:18:36;;;;;;;;;;;;;;;0.94;100.00;101065.88;5036804;28;20221;-73
2022/12/16 00:21:02;;;;;;;;;;;;;;;0.94;100.00;101068.44;5019907;28;19910;-73
2022/12/16 00:23:27;;;;;;;;;;;;;;;0.96;100.00;101063.28;5023490;28;19959;-73
2022/12/16 00:25:52;;;;;;;;;;;;;;;0.96;100.00;101071.03;5031402;28;19925;-73
2022/12/16 00:28:21;;;;;;;;;;;;;;;0.95;100.00;101070.19;5028153;28;19917;-73
2022/12/16 00:30:47;;;;;;;;;;;;;;;0.96;100.00;101076.19;5025512;28;19929;-73
2022/12/16 00:33:12;;;;;;;;;;;;;;;0.96;100.00;101078.78;5029531;28;20183;-73
2022/12/16 00:35:37;;;;;;;;;;;;;;;0.95;100.00;101083.06;5028392;28;19925;-73
2022/12/16 00:38:02;;;;;;;;;;;;;;;0.97;100.00;101083.09;5024969;28;19920;-73
2022/12/16 00:40:28;;;;;;;;;;;;;;;0.98;100.00;101089.09;5020539;28;19917;-73
2022/12/16 00:42:53;;;;;;;;;;;;;;;0.98;100.00;101091.69;5019870;28;20220;-73
2022/12/16 00:45:19;;;;;;;;;;;;;;;0.99;100.00;101094.25;5019938;28;19990;-73
2022/12/16 00:47:45;;;;;;;;;;;;;;;0.99;100.00;101091.69;5037750;28;19968;-73
2022/12/16 00:50:10;;;;;;;;;;;;;;;0.97;100.00;101090.81;5033147;28;19921;-73
2022/12/16 00:52:35;;;;;;;;;;;;;;;0.97;100.00;101093.41;5026367;28;19964;-73
2022/12/16 00:55:01;;;;;;;;;;;;;;;0.98;100.00;101094.25;5019954;28;19932;-73
2022/12/16 00:57:26;;;;;;;;;;;;;;;0.98;100.00;101102.84;5035106;28;20200;-73
2022/12/16 00:59:52;;;;;;;;;;;;;;;1.00;100.00;101097.69;5043046;28;19917;-73
2022/12/16 01:02:17;;;;;;;;;;;;;;;1.02;100.00;101098.56;5032500;28;19913;-73
2022/12/16 01:04:42;;;;;;;;;;;;;;;1.02;100.00;101107.19;5021866;28;19924;-73
2022/12/16 01:07:08;;;;;;;;;;;;;;;1.02;100.00;101104.59;5030967;28;20200;-73
2022/12/16 01:09:33;;;;;;;;;;;;;;;1.03;100.00;101110.59;5042452;28;19948;-73
2022/12/16 01:11:58;;;;;;;;;;;;;;;1.04;100.00;101107.19;5037813;28;19925;-73
2022/12/16 01:14:24;;;;;;;;;;;;;;;1.04;100.00;101100.31;5023079;28;19917;-73
2022/12/16 01:16:49;;;;;;;;;;;;;;;1.04;100.00;101108.03;5025431;28;19941;-73
2022/12/16 01:19:14;;;;;;;;;;;;;;;1.04;100.00;101108.03;5042957;28;19920;-73
2022/12/16 01:21:40;;;;;;;;;;;;;;;1.04;100.00;101110.63;5042354;28;19980;-73
2022/12/16 01:24:06;;;;;;;;;;;;;;;1.05;100.00;101109.75;5023582;28;20176;-73
2022/12/16 01:26:31;;;;;;;;;;;;;;;1.06;100.00;101113.22;5023332;28;20184;-73
2022/12/16 01:28:56;;;;;;;;;;;;;;;1.07;100.00;101117.50;5043417;28;20250;-73
2022/12/16 01:31:23;;;;;;;;;;;;;;;1.06;100.00;101119.22;5062517;28;20135;-73
2022/12/16 01:33:48;;;;;;;;;;;;;;;1.08;100.00;101126.97;5046523;28;20123;-73
2022/12/16 01:36:13;;;;;;;;;;;;;;;1.07;100.00;101126.09;5042339;28;19917;-73
2022/12/16 01:38:40;;;;;;;;;;;;;;;1.08;100.00;101135.56;5028890;28;19924;-73
2022/12/16 01:41:05;;;;;;;;;;;;;;;1.08;100.00;101143.28;5022761;28;19909;-73
2022/12/16 01:43:32;;;;;;;;;;;;;;;1.07;100.00;101153.59;5030795;28;19936;-73
2022/12/16 01:46:03;;;;;;;;;;;;;;;1.07;100.00;101162.19;5042524;28;20169;-73
2022/12/16 01:48:28;;;;;;;;;;;;;;;1.07;100.00;101164.78;5034449;28;19956;-73
2022/12/16 01:50:58;;;;;;;;;;;;;;;1.08;100.00;101165.66;5022541;28;20121;-73
2022/12/16 01:53:23;;;;;;;;;;;;;;;1.08;100.00;101165.66;5028043;28;20148;-73
2022/12/16 01:55:49;;;;;;;;;;;;;;;1.07;100.00;101172.50;5042013;28;19925;-73
2022/12/16 01:58:18;;;;;;;;;;;;;;;1.05;100.00;101173.38;5038293;28;19913;-73
2022/12/16 02:00:44;;;;;;;;;;;;;;;1.04;100.00;101176.84;5040098;28;19944;-73
2022/12/16 02:03:09;;;;;;;;;;;;;;;1.05;100.00;101178.53;5040996;28;19921;-73
2022/12/16 02:05:37;;;;;;;;;;;;;;;1.05;100.00;101176.81;5020243;28;19932;-73
2022/12/16 02:08:08;;;;;;;;;;;;;;;1.06;100.00;101181.13;5021566;28;19913;-73
2022/12/16 02:10:36;;;;;;;;;;;;;;;1.07;100.00;101181.97;5021852;28;19925;-73
2022/12/16 02:13:14;;;;;;;;;;;;;;;1.04;100.00;101190.56;5022467;28;19996;-73
2022/12/16 02:15:42;;;;;;;;;;;;;;;1.00;100.00;101191.44;5023156;28;19921;-73
2022/12/16 02:18:23;;;;;;;;;;;;;;;0.99;100.00;101189.69;5022451;28;19917;-73
2022/12/16 02:21:06;;;;;;;;;;;;;;;0.97;100.00;101191.41;5040826;28;20119;-73
2022/12/16 02:23:35;;;;;;;;;;;;;;;0.97;100.00;101196.56;5041990;28;19920;-73
2022/12/16 02:26:12;;;;;;;;;;;;;;;0.98;100.00;101192.25;5022824;28;19924;-73
2022/12/16 02:28:37;;;;;;;;;;;;;;;0.98;100.00;101198.28;5020911;28;19921;-73
2022/12/16 02:31:38;;;;;;;;;;;;;;;0.96;100.00;101194.81;5025656;28;20136;-73
2022/12/16 02:34:09;;;;;;;;;;;;;;;0.95;100.00;101193.97;4986202;28;19914;-73
2022/12/16 02:36:34;;;;;;;;;;;;;;;0.95;100.00;101190.53;5017731;28;19921;-73
2022/12/16 02:39:21;;;;;;;;;;;;;;;0.95;100.00;101187.97;5021898;28;19931;-73
2022/12/16 02:41:51;;;;;;;;;;;;;;;0.94;100.00;101194.81;5022012;28;20261;-73
2022/12/16 02:44:17;;;;;;;;;;;;;;;0.92;100.00;101199.09;5021613;28;20283;-73
2022/12/16 02:46:51;;;;;;;;;;;;;;;0.91;100.00;101196.53;5022516;28;19929;-73
2022/12/16 02:49:17;;;;;;;;;;;;;;;0.91;100.00;101202.56;5021275;28;19924;-73
2022/12/16 02:51:42;;;;;;;;;;;;;;;0.91;100.00;101196.53;5039627;28;19921;-73
2022/12/16 02:54:08;;;;;;;;;;;;;;;0.91;100.00;101202.56;5039515;28;20000;-73
2022/12/16 02:56:57;;;;;;;;;;;;;;;0.92;100.00;101206.00;5025306;28;19980;-73
2022/12/16 02:59:28;;;;;;;;;;;;;;;0.91;100.00;101206.84;5028112;28;19921;-73
2022/12/16 03:02:03;;;;;;;;;;;;;;;0.91;100.00;101212.00;5023037;28;20204;-73
2022/12/16 03:04:42;;;;;;;;;;;;;;;0.92;100.00;101221.47;5021372;28;19925;-73
2022/12/16 03:07:10;;;;;;;;;;;;;;;0.91;100.00;101220.63;5039389;28;19954;-73
2022/12/16 03:09:37;;;;;;;;;;;;;;;0.91;100.00;101230.03;5040279;28;19927;-73
2022/12/16 03:12:05;;;;;;;;;;;;;;;0.90;100.00;101236.06;5024109;28;19925;-73
2022/12/16 03:14:33;;;;;;;;;;;;;;;0.90;100.00;101242.09;5040444;28;20188;-73
2022/12/16 03:16:59;;;;;;;;;;;;;;;0.87;100.00;101242.06;5026122;28;20008;-73
2022/12/16 03:19:25;;;;;;;;;;;;;;;0.86;100.00;101242.94;5020838;28;20271;-73
2022/12/16 03:21:50;;;;;;;;;;;;;;;0.87;100.00;101241.19;5032990;28;19959;-73
2022/12/16 03:24:15;;;;;;;;;;;;;;;0.87;100.00;101242.06;5040546;28;19917;-73
2022/12/16 03:26:50;;;;;;;;;;;;;;;0.88;100.00;101251.53;5030261;28;20212;-73
2022/12/16 03:29:21;;;;;;;;;;;;;;;0.88;100.00;101254.13;5032692;28;20008;-73
2022/12/16 03:31:57;;;;;;;;;;;;;;;0.86;100.00;101247.22;5050033;28;19956;-73
2022/12/16 03:34:32;;;;;;;;;;;;;;;0.87;100.00;101260.09;5040187;28;19984;-73
2022/12/16 03:37:00;;;;;;;;;;;;;;;0.89;100.00;101254.97;5031647;28;19914;-73
2022/12/16 03:39:26;;;;;;;;;;;;;;;0.90;100.00;101257.56;5021755;28;19925;-73
2022/12/16 03:41:53;;;;;;;;;;;;;;;0.90;100.00;101261.84;5020928;28;20475;-73
2022/12/16 03:44:19;;;;;;;;;;;;;;;0.90;100.00;101256.69;5024255;28;19971;-73
2022/12/16 03:46:44;;;;;;;;;;;;;;;0.89;100.00;101260.13;5040159;28;20108;-73
2022/12/16 03:49:09;;;;;;;;;;;;;;;0.89;100.00;101255.84;5038731;28;19927;-73
2022/12/16 03:51:35;;;;;;;;;;;;;;;0.90;100.00;101260.13;5020145;28;20102;-73
2022/12/16 03:54:00;;;;;;;;;;;;;;;0.92;100.00;101263.59;5020967;28;19952;-73
2022/12/16 03:56:25;;;;;;;;;;;;;;;0.92;100.00;101262.72;5038801;28;19925;-73
2022/12/16 03:58:50;;;;;;;;;;;;;;;0.92;100.00;101270.47;5042600;28;19944;-74
2022/12/16 04:01:16;;;;;;;;;;;;;;;0.93;100.00;101277.38;5042610;28;19924;-74
2022/12/16 04:03:41;;;;;;;;;;;;;;;0.93;100.00;101277.38;5039966;28;20116;-74
2022/12/16 04:06:06;;;;;;;;;;;;;;;0.94;100.00;101279.91;5026494;28;20208;-74
2022/12/16 04:08:32;;;;;;;;;;;;;;;0.94;100.00;101289.38;5020611;28;19960;-74
2022/12/16 04:25:12;;;;;;;;;;;;;;;0.92;100.00;101288.53;5021031;28;20108;-74
2022/12/16 04:27:37;;;;;;;;;;;;;;;0.91;100.00;101292.81;5039525;28;19956;-73
2022/12/16 04:30:18;;;;;;;;;;;;;;;0.90;100.00;101296.25;5039664;28;19925;-73
